createdAt,value
2023-06-06T00:00:16.865Z,4.90
2023-06-06T00:01:16.847Z,4.92
2023-06-06T00:02:16.889Z,4.98
2023-06-06T00:03:16.875Z,4.83
2023-06-06T00:04:16.855Z,4.84
2023-06-06T00:05:16.835Z,5.01
2023-06-06T00:06:16.816Z,4.95
2023-06-06T00:07:16.788Z,5.01
2023-06-06T00:08:16.809Z,4.94
2023-06-06T00:09:16.794Z,4.78
2023-06-06T00:10:16.814Z,4.90
2023-06-06T00:11:16.774Z,4.75
2023-06-06T00:12:16.757Z,4.83
2023-06-06T00:13:16.765Z,4.91
2023-06-06T00:14:16.763Z,4.88
2023-06-06T00:15:16.784Z,4.87
2023-06-06T00:16:16.795Z,4.84
2023-06-06T00:17:16.754Z,4.88
2023-06-06T00:18:16.879Z,4.81
2023-06-06T00:19:16.711Z,4.88
2023-06-06T00:20:16.741Z,4.82
2023-06-06T00:21:16.703Z,4.82
2023-06-06T00:22:16.725Z,4.91
2023-06-06T00:23:16.688Z,4.95
2023-06-06T00:24:16.697Z,4.95
2023-06-06T00:25:16.711Z,4.84
2023-06-06T00:26:16.674Z,4.97
2023-06-06T00:27:16.660Z,4.91
2023-06-06T00:28:16.673Z,4.92
2023-06-06T00:29:16.652Z,4.89
2023-06-06T00:30:16.645Z,4.92
2023-06-06T00:31:16.681Z,4.86
2023-06-06T00:32:16.650Z,4.83
2023-06-06T00:33:16.649Z,4.86
2023-06-06T00:34:16.643Z,4.81
2023-06-06T00:35:16.636Z,4.71
2023-06-06T00:36:16.627Z,4.71
2023-06-06T00:37:16.660Z,4.67
2023-06-06T00:38:16.645Z,4.73
2023-06-06T00:39:16.689Z,4.64
2023-06-06T00:40:16.775Z,4.70
2023-06-06T00:41:16.950Z,4.74
2023-06-06T00:42:17.101Z,4.66
2023-06-06T00:43:17.250Z,4.78
2023-06-06T00:44:17.504Z,4.82
2023-06-06T00:45:17.631Z,4.83
2023-06-06T00:46:17.835Z,4.91
2023-06-06T00:47:18.013Z,4.91
2023-06-06T00:48:18.229Z,5.03
2023-06-06T00:49:18.421Z,5.06
2023-06-06T00:50:18.623Z,5.20
2023-06-06T00:51:18.728Z,5.34
2023-06-06T00:52:19.028Z,5.41
2023-06-06T00:53:19.095Z,5.39
2023-06-06T00:54:19.285Z,5.52
2023-06-06T00:55:19.447Z,5.63
2023-06-06T00:56:19.727Z,5.77
2023-06-06T00:57:19.933Z,5.70
2023-06-06T00:58:20.121Z,5.78
2023-06-06T00:59:20.232Z,5.87
2023-06-06T01:00:20.391Z,5.90
2023-06-06T01:01:20.577Z,5.87
2023-06-06T01:02:20.589Z,6.03
2023-06-06T01:03:20.558Z,6.03
2023-06-06T01:04:20.543Z,5.93
2023-06-06T01:05:20.638Z,6.15
2023-06-06T01:06:20.514Z,5.91
2023-06-06T01:07:20.527Z,5.99
2023-06-06T01:08:20.503Z,6.01
2023-06-06T01:09:20.516Z,6.05
2023-06-06T01:10:20.499Z,5.93
2023-06-06T01:11:20.502Z,5.88
2023-06-06T01:12:20.468Z,5.79
2023-06-06T01:13:20.453Z,5.94
2023-06-06T01:14:20.513Z,6.04
2023-06-06T01:15:20.517Z,5.91
2023-06-06T01:16:20.544Z,6.01
2023-06-06T01:17:20.480Z,5.93
2023-06-06T01:18:20.488Z,5.93
2023-06-06T01:19:20.493Z,6.08
2023-06-06T01:20:20.563Z,5.99
2023-06-06T01:21:20.530Z,5.92
2023-06-06T01:22:20.536Z,5.89
2023-06-06T01:23:20.596Z,5.96
2023-06-06T01:24:20.542Z,5.96
2023-06-06T01:25:20.661Z,6.13
2023-06-06T01:26:20.500Z,5.98
2023-06-06T01:27:20.495Z,5.95
2023-06-06T01:28:20.504Z,6.10
2023-06-06T01:29:20.478Z,6.04
2023-06-06T01:30:20.474Z,6.08
2023-06-06T01:31:20.517Z,5.91
2023-06-06T01:32:20.526Z,5.95
2023-06-06T01:33:20.461Z,6.06
2023-06-06T01:34:20.457Z,6.05
2023-06-06T01:35:20.435Z,6.00
2023-06-06T01:36:20.442Z,6.02
2023-06-06T01:37:20.472Z,5.88
2023-06-06T01:38:20.495Z,5.91
2023-06-06T01:39:20.522Z,5.89
2023-06-06T01:40:20.503Z,5.88
2023-06-06T01:41:20.476Z,5.86
2023-06-06T01:42:20.434Z,5.74
2023-06-06T01:43:20.441Z,5.68
2023-06-06T01:44:20.448Z,5.85
2023-06-06T01:45:20.420Z,5.68
2023-06-06T01:46:20.460Z,5.72
2023-06-06T01:47:20.470Z,5.76
2023-06-06T01:48:20.402Z,5.81
2023-06-06T01:49:20.393Z,5.80
2023-06-06T01:50:20.387Z,5.88
2023-06-06T01:51:20.398Z,5.81
2023-06-06T01:52:20.384Z,5.89
2023-06-06T01:53:20.371Z,5.90
2023-06-06T01:54:20.360Z,5.88
2023-06-06T01:55:20.361Z,5.78
2023-06-06T01:56:20.340Z,5.84
2023-06-06T01:57:20.352Z,5.76
2023-06-06T01:58:20.385Z,5.63
2023-06-06T01:59:20.350Z,5.53
2023-06-06T02:00:20.340Z,5.50
2023-06-06T02:01:20.358Z,5.34
2023-06-06T02:02:20.466Z,5.30
2023-06-06T02:03:20.357Z,5.14
2023-06-06T02:04:20.298Z,5.10
2023-06-06T02:05:20.334Z,4.97
2023-06-06T02:06:20.288Z,4.87
2023-06-06T02:07:20.290Z,4.69
2023-06-06T02:08:20.272Z,4.69
2023-06-06T02:09:20.279Z,4.63
2023-06-06T02:10:20.282Z,4.61
2023-06-06T02:11:20.252Z,4.55
2023-06-06T02:12:20.278Z,4.62
2023-06-06T02:13:20.255Z,4.61
2023-06-06T02:14:20.243Z,4.73
2023-06-06T02:15:20.227Z,4.67
2023-06-06T02:16:20.293Z,4.78
2023-06-06T02:17:20.312Z,4.77
2023-06-06T02:18:20.227Z,4.90
2023-06-06T02:19:20.219Z,4.94
2023-06-06T02:20:20.219Z,5.08
2023-06-06T02:21:20.192Z,5.30
2023-06-06T02:22:20.187Z,5.37
2023-06-06T02:23:20.179Z,5.43
2023-06-06T02:24:20.210Z,5.50
2023-06-06T02:25:20.259Z,5.67
2023-06-06T02:26:20.243Z,5.86
2023-06-06T02:27:20.253Z,5.84
2023-06-06T02:28:20.252Z,5.87
2023-06-06T02:29:20.290Z,6.08
2023-06-06T02:30:20.289Z,6.13
2023-06-06T02:31:20.421Z,6.10
2023-06-06T02:32:20.451Z,6.21
2023-06-06T02:33:20.473Z,6.22
2023-06-06T02:34:20.466Z,6.22
2023-06-06T02:35:20.454Z,6.41
2023-06-06T02:36:20.491Z,6.36
2023-06-06T02:37:20.494Z,6.37
2023-06-06T02:38:20.648Z,6.31
2023-06-06T02:39:20.592Z,6.56
2023-06-06T02:40:20.597Z,6.42
2023-06-06T02:41:20.628Z,6.54
2023-06-06T02:42:20.642Z,6.53
2023-06-06T02:43:20.709Z,6.50
2023-06-06T02:44:20.779Z,6.55
2023-06-06T02:45:20.766Z,6.53
2023-06-06T02:46:20.853Z,6.55
2023-06-06T02:47:20.784Z,6.48
2023-06-06T02:48:20.817Z,6.58
2023-06-06T02:49:20.815Z,6.38
2023-06-06T02:50:20.812Z,6.46
2023-06-06T02:51:20.819Z,6.55
2023-06-06T02:52:20.849Z,6.50
2023-06-06T02:53:20.847Z,6.52
2023-06-06T02:54:20.957Z,6.46
2023-06-06T02:55:21.110Z,6.58
2023-06-06T02:56:21.246Z,6.64
2023-06-06T02:57:21.372Z,6.48
2023-06-06T02:58:21.498Z,6.59
2023-06-06T02:59:21.646Z,6.44
2023-06-06T03:00:21.829Z,6.43
2023-06-06T03:01:22.026Z,6.59
2023-06-06T03:02:22.194Z,6.49
2023-06-06T03:03:22.266Z,6.40
2023-06-06T03:04:22.533Z,6.37
2023-06-06T03:05:22.606Z,6.21
2023-06-06T03:06:22.729Z,6.19
2023-06-06T03:07:22.906Z,6.13
2023-06-06T03:08:23.076Z,5.89
2023-06-06T03:09:23.251Z,5.83
2023-06-06T03:10:23.405Z,5.72
2023-06-06T03:11:23.388Z,5.66
2023-06-06T03:12:23.414Z,5.55
2023-06-06T03:13:23.373Z,5.43
2023-06-06T03:14:23.389Z,5.27
2023-06-06T03:15:23.360Z,5.27
2023-06-06T03:16:23.411Z,5.19
2023-06-06T03:17:23.446Z,5.14
2023-06-06T03:18:23.350Z,5.10
2023-06-06T03:19:23.355Z,4.90
2023-06-06T03:20:23.363Z,4.84
2023-06-06T03:21:23.321Z,4.73
2023-06-06T03:22:23.385Z,4.74
2023-06-06T03:23:23.430Z,4.57
2023-06-06T03:24:23.364Z,4.51
2023-06-06T03:25:23.374Z,4.37
2023-06-06T03:26:23.350Z,4.28
2023-06-06T03:27:23.365Z,4.22
2023-06-06T03:28:23.357Z,4.14
2023-06-06T03:29:23.336Z,4.01
2023-06-06T03:30:23.340Z,3.89
2023-06-06T03:31:23.436Z,3.89
2023-06-06T03:32:23.461Z,3.83
2023-06-06T03:33:23.314Z,3.79
2023-06-06T03:34:23.329Z,3.73
2023-06-06T03:35:23.317Z,3.67
2023-06-06T03:36:23.306Z,3.57
2023-06-06T03:37:23.289Z,3.58
2023-06-06T03:38:23.290Z,3.56
2023-06-06T03:39:23.311Z,3.51
2023-06-06T03:40:23.301Z,3.47
2023-06-06T03:41:23.316Z,3.41
2023-06-06T03:42:23.285Z,3.30
2023-06-06T03:43:23.275Z,3.38
2023-06-06T03:44:23.274Z,3.24
2023-06-06T03:45:23.253Z,3.23
2023-06-06T03:46:23.293Z,3.22
2023-06-06T03:47:23.285Z,3.28
2023-06-06T03:48:23.242Z,3.12
2023-06-06T03:49:23.249Z,3.13
2023-06-06T03:50:23.253Z,3.13
2023-06-06T03:51:23.265Z,3.16
2023-06-06T03:52:23.255Z,3.06
2023-06-06T03:53:23.224Z,3.01
2023-06-06T03:54:23.208Z,3.10
2023-06-06T03:55:23.189Z,3.02
2023-06-06T03:56:23.178Z,3.03
2023-06-06T03:57:23.184Z,3.07
2023-06-06T03:58:23.165Z,3.00
2023-06-06T03:59:23.180Z,3.02
2023-06-06T04:00:23.141Z,2.99
2023-06-06T04:01:23.183Z,2.87
2023-06-06T04:02:23.295Z,2.97
2023-06-06T04:03:23.426Z,2.93
2023-06-06T04:04:23.174Z,2.91
2023-06-06T04:05:23.108Z,2.86
2023-06-06T04:06:23.119Z,2.84
2023-06-06T04:07:23.184Z,2.89
2023-06-06T04:08:23.097Z,2.85
2023-06-06T04:09:23.110Z,2.88
2023-06-06T04:10:23.091Z,2.79
2023-06-06T04:11:23.062Z,2.79
2023-06-06T04:12:23.065Z,2.81
2023-06-06T04:13:23.050Z,2.80
2023-06-06T04:14:24.537Z,2.86
2023-06-06T04:15:23.048Z,2.78
2023-06-06T04:16:23.168Z,2.81
2023-06-06T04:17:23.046Z,2.78
2023-06-06T04:18:23.038Z,2.77
2023-06-06T04:19:23.051Z,2.79
2023-06-06T04:20:23.009Z,2.81
2023-06-06T04:21:23.037Z,2.77
2023-06-06T04:22:23.015Z,2.76
2023-06-06T04:23:23.051Z,2.77
2023-06-06T04:24:22.984Z,2.80
2023-06-06T04:25:23.009Z,2.81
2023-06-06T04:26:22.988Z,2.75
2023-06-06T04:27:22.984Z,2.81
2023-06-06T04:28:22.998Z,2.86
2023-06-06T04:29:22.989Z,2.87
2023-06-06T04:30:22.960Z,2.88
2023-06-06T04:31:22.986Z,2.89
2023-06-06T04:32:22.931Z,2.86
2023-06-06T04:33:23.033Z,2.93
2023-06-06T04:34:22.933Z,2.90
2023-06-06T04:35:22.936Z,2.90
2023-06-06T04:36:22.925Z,2.96
2023-06-06T04:37:22.921Z,2.93
2023-06-06T04:38:22.897Z,2.99
2023-06-06T04:39:22.954Z,3.08
2023-06-06T04:40:23.121Z,3.15
2023-06-06T04:42:23.230Z,3.25
2023-06-06T04:43:23.265Z,3.28
2023-06-06T04:44:23.310Z,3.41
2023-06-06T04:45:23.298Z,3.42
2023-06-06T04:46:23.879Z,3.46
2023-06-06T04:47:23.397Z,3.46
2023-06-06T04:48:23.341Z,3.55
2023-06-06T04:49:23.350Z,3.56
2023-06-06T04:50:23.331Z,3.54
2023-06-06T04:51:23.367Z,3.69
2023-06-06T04:52:23.353Z,3.77
2023-06-06T04:53:23.387Z,3.63
2023-06-06T04:54:23.427Z,3.67
2023-06-06T04:55:23.422Z,3.57
2023-06-06T04:56:23.455Z,3.58
2023-06-06T04:57:23.468Z,3.52
2023-06-06T04:58:23.465Z,3.39
2023-06-06T04:59:23.657Z,3.36
2023-06-06T05:00:23.554Z,3.29
2023-06-06T05:01:23.586Z,3.27
2023-06-06T05:02:23.660Z,3.30
2023-06-06T05:03:23.723Z,3.21
2023-06-06T05:04:23.664Z,3.12
2023-06-06T05:05:23.690Z,3.06
2023-06-06T05:06:23.720Z,3.05
2023-06-06T05:07:23.735Z,3.08
2023-06-06T05:08:23.769Z,3.06
2023-06-06T05:09:23.789Z,3.09
2023-06-06T05:10:23.822Z,2.99
2023-06-06T05:11:23.864Z,2.96
2023-06-06T05:12:23.909Z,2.94
2023-06-06T05:13:24.030Z,2.94
2023-06-06T05:14:24.030Z,2.91
2023-06-06T05:15:24.108Z,2.88
2023-06-06T05:16:24.193Z,2.85
2023-06-06T05:17:24.228Z,2.84
2023-06-06T05:18:24.221Z,2.85
2023-06-06T05:19:24.292Z,2.85
2023-06-06T05:20:24.332Z,2.93
2023-06-06T05:21:24.370Z,2.94
2023-06-06T05:22:24.407Z,2.91
2023-06-06T05:23:24.469Z,2.95
2023-06-06T05:24:24.498Z,2.97
2023-06-06T05:25:24.559Z,3.03
2023-06-06T05:26:24.640Z,3.06
2023-06-06T05:27:24.675Z,3.11
2023-06-06T05:28:24.717Z,3.15
2023-06-06T05:29:24.759Z,3.48
2023-06-06T05:30:24.869Z,4.48
2023-06-06T05:31:24.911Z,6.17
2023-06-06T05:32:25.729Z,8.24
2023-06-06T05:33:25.002Z,10.22
2023-06-06T05:34:25.024Z,11.94
2023-06-06T05:35:25.037Z,14.49
2023-06-06T05:36:25.042Z,16.24
2023-06-06T05:37:25.089Z,17.32
2023-06-06T05:38:25.099Z,17.66
2023-06-06T05:39:25.123Z,17.69
2023-06-06T05:40:25.144Z,17.60
2023-06-06T05:41:25.128Z,17.89
2023-06-06T05:42:25.140Z,18.04
2023-06-06T05:43:25.104Z,18.96
2023-06-06T05:44:25.214Z,19.20
2023-06-06T05:45:25.125Z,20.13
2023-06-06T05:46:25.107Z,21.12
2023-06-06T05:47:25.183Z,21.28
2023-06-06T05:48:25.152Z,22.34
2023-06-06T05:49:25.300Z,22.30
2023-06-06T05:50:25.216Z,21.70
2023-06-06T05:51:25.276Z,21.23
2023-06-06T05:52:25.275Z,21.74
2023-06-06T05:53:25.321Z,21.72
2023-06-06T05:54:27.059Z,21.32
2023-06-06T05:55:26.335Z,21.29
2023-06-06T05:56:25.329Z,20.87
2023-06-06T05:57:25.327Z,20.91
2023-06-06T05:58:25.312Z,20.83
2023-06-06T05:59:25.318Z,20.50
2023-06-06T06:00:25.304Z,20.24
2023-06-06T06:01:25.319Z,19.86
2023-06-06T06:02:25.347Z,20.09
2023-06-06T06:03:25.461Z,19.43
2023-06-06T06:04:25.301Z,19.38
2023-06-06T06:05:25.282Z,18.92
2023-06-06T06:06:25.318Z,18.82
2023-06-06T06:07:25.362Z,18.51
2023-06-06T06:08:25.439Z,18.52
2023-06-06T06:09:25.509Z,17.93
2023-06-06T06:10:25.539Z,18.60
2023-06-06T06:11:25.644Z,18.54
2023-06-06T06:12:25.673Z,16.46
2023-06-06T06:13:25.740Z,16.75
2023-06-06T06:14:25.814Z,15.15
2023-06-06T06:15:26.200Z,13.58
2023-06-06T06:16:25.951Z,12.16
2023-06-06T06:17:25.946Z,9.88
2023-06-06T06:18:25.971Z,8.18
2023-06-06T06:19:26.010Z,7.23
2023-06-06T06:20:26.239Z,6.96
2023-06-06T06:21:25.984Z,6.40
2023-06-06T06:22:25.995Z,5.90
2023-06-06T06:23:26.030Z,5.45
2023-06-06T06:24:25.996Z,5.10
2023-06-06T06:25:26.058Z,4.83
2023-06-06T06:26:26.046Z,4.64
2023-06-06T06:27:26.077Z,4.65
2023-06-06T06:28:26.059Z,4.32
2023-06-06T06:29:26.264Z,4.09
2023-06-06T06:30:26.127Z,3.97
2023-06-06T06:31:26.124Z,3.87
2023-06-06T06:32:26.204Z,3.91
2023-06-06T06:33:26.199Z,4.73
2023-06-06T06:34:26.116Z,5.41
2023-06-06T06:35:26.175Z,6.21
2023-06-06T06:36:26.168Z,7.03
2023-06-06T06:37:26.168Z,8.03
2023-06-06T06:38:26.343Z,8.72
2023-06-06T06:39:26.816Z,8.76
2023-06-06T06:40:26.343Z,9.36
2023-06-06T06:41:26.408Z,9.91
2023-06-06T06:42:26.421Z,9.12
2023-06-06T06:43:26.494Z,9.39
2023-06-06T06:44:26.535Z,9.96
2023-06-06T06:45:26.732Z,10.06
2023-06-06T06:46:26.636Z,9.68
2023-06-06T06:47:26.667Z,10.45
2023-06-06T06:48:26.683Z,10.65
2023-06-06T06:49:26.756Z,11.33
2023-06-06T06:50:27.250Z,11.04
2023-06-06T06:51:26.866Z,11.23
2023-06-06T06:52:26.899Z,11.39
2023-06-06T06:53:26.956Z,11.75
2023-06-06T06:54:27.003Z,12.14
2023-06-06T06:55:27.280Z,12.82
2023-06-06T06:56:27.123Z,13.06
2023-06-06T06:57:27.130Z,13.04
2023-06-06T06:58:27.222Z,13.53
2023-06-06T06:59:27.232Z,13.66
2023-06-06T07:00:27.283Z,13.70
2023-06-06T07:01:27.378Z,13.62
2023-06-06T07:02:27.377Z,13.47
2023-06-06T07:03:27.391Z,13.88
2023-06-06T07:04:27.403Z,13.94
2023-06-06T07:05:27.878Z,14.02
2023-06-06T07:06:27.481Z,13.76
2023-06-06T07:07:27.504Z,13.65
2023-06-06T07:08:27.572Z,14.05
2023-06-06T07:09:27.593Z,13.32
2023-06-06T07:10:27.755Z,12.92
2023-06-06T07:11:27.725Z,10.74
2023-06-06T07:12:27.677Z,9.88
2023-06-06T07:13:27.724Z,10.73
2023-06-06T07:14:27.794Z,10.92
2023-06-06T07:15:28.229Z,10.77
2023-06-06T07:16:27.836Z,10.99
2023-06-06T07:17:27.942Z,10.82
2023-06-06T07:18:27.906Z,10.63
2023-06-06T07:19:27.939Z,10.62
2023-06-06T07:20:27.954Z,11.07
2023-06-06T07:21:28.112Z,10.91
2023-06-06T07:22:27.988Z,9.86
2023-06-06T07:23:28.048Z,9.95
2023-06-06T07:24:28.055Z,10.21
2023-06-06T07:25:28.320Z,10.08
2023-06-06T07:26:28.094Z,9.61
2023-06-06T07:27:28.107Z,8.51
2023-06-06T07:28:28.123Z,8.22
2023-06-06T07:29:28.143Z,7.76
2023-06-06T07:30:28.241Z,7.38
2023-06-06T07:31:28.200Z,6.30
2023-06-06T07:32:28.260Z,5.88
2023-06-06T07:33:28.172Z,4.76
2023-06-06T07:34:28.203Z,4.90
2023-06-06T07:35:28.233Z,3.77
2023-06-06T07:36:28.248Z,3.26
2023-06-06T07:37:28.271Z,3.10
2023-06-06T07:38:28.321Z,2.72
2023-06-06T07:39:28.314Z,2.51
2023-06-06T07:40:28.753Z,2.23
2023-06-06T07:41:28.409Z,2.14
2023-06-06T07:42:28.457Z,2.03
2023-06-06T07:43:28.493Z,1.89
2023-06-06T07:44:28.525Z,1.80
2023-06-06T07:45:28.599Z,1.76
2023-06-06T07:46:28.826Z,1.74
2023-06-06T07:47:28.697Z,1.74
2023-06-06T07:48:28.740Z,1.67
2023-06-06T07:49:28.792Z,1.64
2023-06-06T07:50:28.894Z,1.50
2023-06-06T07:51:28.903Z,1.42
2023-06-06T07:52:28.947Z,1.37
2023-06-06T07:53:29.041Z,1.30
2023-06-06T07:54:29.021Z,1.30
2023-06-06T07:55:29.072Z,1.15
2023-06-06T07:56:29.082Z,1.07
2023-06-06T07:57:29.144Z,1.01
2023-06-06T07:58:29.206Z,0.98
2023-06-06T07:59:29.283Z,0.99
2023-06-06T08:00:29.335Z,0.95
2023-06-06T08:01:29.400Z,0.91
2023-06-06T08:02:29.544Z,0.98
2023-06-06T08:03:29.558Z,0.97
2023-06-06T08:04:29.622Z,1.03
2023-06-06T08:05:29.672Z,1.08
2023-06-06T08:06:29.699Z,1.13
2023-06-06T08:07:31.823Z,1.19
2023-06-06T08:08:29.828Z,1.15
2023-06-06T08:09:30.120Z,0.98
2023-06-06T08:10:29.882Z,0.92
2023-06-06T08:11:29.906Z,0.91
2023-06-06T08:12:29.926Z,0.91
2023-06-06T08:13:29.978Z,0.99
2023-06-06T08:14:30.042Z,0.99
2023-06-06T08:15:30.151Z,0.93
2023-06-06T08:16:30.161Z,0.89
2023-06-06T08:17:30.280Z,0.88
2023-06-06T08:18:30.353Z,0.80
2023-06-06T08:19:30.318Z,0.79
2023-06-06T08:20:30.849Z,0.72
2023-06-06T08:21:30.414Z,0.75
2023-06-06T08:22:30.518Z,0.82
2023-06-06T08:23:30.506Z,1.08
2023-06-06T08:24:30.552Z,1.40
2023-06-06T08:25:30.910Z,2.05
2023-06-06T08:26:30.625Z,2.66
2023-06-06T08:27:30.650Z,3.24
2023-06-06T08:28:30.713Z,3.32
2023-06-06T08:29:30.697Z,3.60
2023-06-06T08:30:30.728Z,3.84
2023-06-06T08:31:30.840Z,3.73
2023-06-06T08:32:30.791Z,3.65
2023-06-06T08:33:30.799Z,3.45
2023-06-06T08:34:30.843Z,3.33
2023-06-06T08:35:30.890Z,3.45
2023-06-06T08:36:30.912Z,3.47
2023-06-06T08:37:30.962Z,3.40
2023-06-06T08:38:30.981Z,3.12
2023-06-06T08:39:31.259Z,2.77
2023-06-06T08:40:31.065Z,2.73
2023-06-06T08:41:31.136Z,3.13
2023-06-06T08:42:31.108Z,3.52
2023-06-06T08:43:31.121Z,4.07
2023-06-06T08:44:31.150Z,4.58
2023-06-06T08:45:31.212Z,4.65
2023-06-06T08:46:31.285Z,4.81
2023-06-06T08:47:31.284Z,4.91
2023-06-06T08:48:31.270Z,5.75
2023-06-06T08:49:31.258Z,5.24
2023-06-06T08:50:31.257Z,4.80
2023-06-06T08:51:31.262Z,5.51
2023-06-06T08:52:31.293Z,5.81
2023-06-06T08:53:31.302Z,5.39
2023-06-06T08:54:31.309Z,5.58
2023-06-06T08:55:31.345Z,4.93
2023-06-06T08:56:31.367Z,5.25
2023-06-06T08:57:31.480Z,5.80
2023-06-06T08:58:31.450Z,6.26
2023-06-06T08:59:31.493Z,6.26
2023-06-06T09:00:31.587Z,5.65
2023-06-06T09:01:31.645Z,5.37
2023-06-06T09:02:31.685Z,5.87
2023-06-06T09:03:34.055Z,6.51
2023-06-06T09:04:31.634Z,6.52
2023-06-06T09:05:31.829Z,6.62
2023-06-06T09:06:31.654Z,6.82
2023-06-06T09:07:31.645Z,6.89
2023-06-06T09:08:31.629Z,7.03
2023-06-06T09:09:31.615Z,7.84
2023-06-06T09:10:31.779Z,7.33
2023-06-06T09:11:31.619Z,7.62
2023-06-06T09:12:31.640Z,7.24
2023-06-06T09:13:31.662Z,7.56
2023-06-06T09:14:31.578Z,7.76
2023-06-06T09:15:31.812Z,7.81
2023-06-06T09:16:31.612Z,8.04
2023-06-06T09:17:31.592Z,8.39
2023-06-06T09:18:31.581Z,8.61
2023-06-06T09:19:31.557Z,8.60
2023-06-06T09:20:31.840Z,8.70
2023-06-06T09:21:31.555Z,8.67
2023-06-06T09:22:31.526Z,7.91
2023-06-06T09:23:31.613Z,7.00
2023-06-06T09:24:31.579Z,6.70
2023-06-06T09:25:31.618Z,6.15
2023-06-06T09:26:31.554Z,5.91
2023-06-06T09:27:31.513Z,4.94
2023-06-06T09:28:31.490Z,5.78
2023-06-06T09:29:31.601Z,7.42
2023-06-06T09:30:31.818Z,7.70
2023-06-06T09:31:32.069Z,6.92
2023-06-06T09:32:32.029Z,5.35
2023-06-06T09:33:31.874Z,5.19
2023-06-06T09:34:31.831Z,3.66
2023-06-06T09:35:31.900Z,2.12
2023-06-06T09:36:31.940Z,1.73
2023-06-06T09:37:32.041Z,1.36
2023-06-06T09:38:32.060Z,1.07
2023-06-06T09:39:32.081Z,0.98
2023-06-06T09:40:32.339Z,1.01
2023-06-06T09:41:32.204Z,0.95
2023-06-06T09:42:32.216Z,0.98
2023-06-06T09:43:32.286Z,0.90
2023-06-06T09:44:32.341Z,0.91
2023-06-06T09:45:32.499Z,0.87
2023-06-06T09:46:32.561Z,0.81
2023-06-06T09:47:32.752Z,0.80
2023-06-06T09:48:32.565Z,0.90
2023-06-06T09:49:32.635Z,0.95
2023-06-06T09:50:32.843Z,0.97
2023-06-06T09:51:33.022Z,0.98
2023-06-06T09:52:32.825Z,1.07
2023-06-06T09:53:33.205Z,1.09
2023-06-06T09:54:32.942Z,1.13
2023-06-06T09:55:33.316Z,1.12
2023-06-06T09:56:33.029Z,1.05
2023-06-06T09:57:33.321Z,1.08
2023-06-06T09:58:33.146Z,1.08
2023-06-06T09:59:33.190Z,1.13
2023-06-06T10:00:33.306Z,1.10
2023-06-06T10:01:33.356Z,1.10
2023-06-06T10:02:34.180Z,1.12
2023-06-06T10:03:33.604Z,1.02
2023-06-06T10:04:33.523Z,0.93
2023-06-06T10:05:33.494Z,0.90
2023-06-06T10:06:33.540Z,0.82
2023-06-06T10:07:33.605Z,0.76
2023-06-06T10:08:33.626Z,0.68
2023-06-06T10:09:33.809Z,0.66
2023-06-06T10:10:33.882Z,0.64
2023-06-06T10:11:33.758Z,0.58
2023-06-06T10:12:33.846Z,0.56
2023-06-06T10:13:33.873Z,0.53
2023-06-06T10:14:33.953Z,0.56
2023-06-06T10:15:34.000Z,0.52
2023-06-06T10:16:34.034Z,0.50
2023-06-06T10:17:34.103Z,0.53
2023-06-06T10:18:34.112Z,0.52
2023-06-06T10:19:34.166Z,0.51
2023-06-06T10:20:34.331Z,0.57
2023-06-06T10:21:34.269Z,0.50
2023-06-06T10:22:34.311Z,0.54
2023-06-06T10:23:34.504Z,0.50
2023-06-06T10:24:35.683Z,0.50
2023-06-06T10:25:34.817Z,0.47
2023-06-06T10:26:34.435Z,0.52
2023-06-06T10:27:34.486Z,0.55
2023-06-06T10:28:34.407Z,0.52
2023-06-06T10:29:34.428Z,0.50
2023-06-06T10:30:34.829Z,0.55
2023-06-06T10:31:34.406Z,0.64
2023-06-06T10:32:34.396Z,0.66
2023-06-06T10:33:34.449Z,0.76
2023-06-06T10:34:34.361Z,0.80
2023-06-06T10:35:34.831Z,0.92
2023-06-06T10:36:34.331Z,1.03
2023-06-06T10:37:34.334Z,1.25
2023-06-06T10:38:34.306Z,1.42
2023-06-06T10:39:34.314Z,1.45
2023-06-06T10:40:34.353Z,1.50
2023-06-06T10:41:34.291Z,1.70
2023-06-06T10:42:34.296Z,1.88
2023-06-06T10:43:35.094Z,2.02
2023-06-06T10:44:34.273Z,2.04
2023-06-06T10:45:34.274Z,2.07
2023-06-06T10:46:34.326Z,1.97
2023-06-06T10:47:34.606Z,1.97
2023-06-06T10:48:34.302Z,1.97
2023-06-06T10:49:34.302Z,2.20
2023-06-06T10:50:34.303Z,2.16
2023-06-06T10:51:34.275Z,2.07
2023-06-06T10:52:34.265Z,1.85
2023-06-06T10:53:34.253Z,2.05
2023-06-06T10:54:34.263Z,2.13
2023-06-06T10:55:34.333Z,2.11
2023-06-06T10:56:34.290Z,2.16
2023-06-06T10:57:34.294Z,2.20
2023-06-06T10:58:34.348Z,2.28
2023-06-06T10:59:34.384Z,2.24
2023-06-06T11:00:34.451Z,2.14
2023-06-06T11:01:34.591Z,2.12
2023-06-06T11:02:34.688Z,2.11
2023-06-06T11:03:34.780Z,1.91
2023-06-06T11:04:34.695Z,1.92
2023-06-06T11:05:34.866Z,2.07
2023-06-06T11:06:34.822Z,2.00
2023-06-06T11:07:34.896Z,1.89
2023-06-06T11:08:34.997Z,1.81
2023-06-06T11:09:35.080Z,1.84
2023-06-06T11:10:35.365Z,1.77
2023-06-06T11:11:35.094Z,1.69
2023-06-06T11:12:35.166Z,1.76
2023-06-06T11:13:35.381Z,1.69
2023-06-06T11:14:35.289Z,1.59
2023-06-06T11:15:35.304Z,1.53
2023-06-06T11:16:35.585Z,1.46
2023-06-06T11:17:35.501Z,1.43
2023-06-06T11:18:35.443Z,1.28
2023-06-06T11:19:35.512Z,0.96
2023-06-06T11:20:35.564Z,0.76
2023-06-06T11:21:35.772Z,0.79
2023-06-06T11:22:35.633Z,0.85
2023-06-06T11:23:35.735Z,1.01
2023-06-06T11:24:35.766Z,0.99
2023-06-06T11:25:35.835Z,0.67
2023-06-06T11:26:35.866Z,0.66
2023-06-06T11:27:35.980Z,0.72
2023-06-06T11:28:35.954Z,0.74
2023-06-06T11:29:36.007Z,0.85
2023-06-06T11:30:36.114Z,0.85
2023-06-06T11:31:36.157Z,0.79
2023-06-06T11:32:36.178Z,0.73
2023-06-06T11:33:36.201Z,0.78
2023-06-06T11:34:36.217Z,0.79
2023-06-06T11:35:36.289Z,0.68
2023-06-06T11:36:36.290Z,0.61
2023-06-06T11:37:36.362Z,0.51
2023-06-06T11:38:36.409Z,0.53
2023-06-06T11:39:36.470Z,0.54
2023-06-06T11:40:36.543Z,0.63
2023-06-06T11:41:36.512Z,0.64
2023-06-06T11:42:36.574Z,0.54
2023-06-06T11:43:36.653Z,0.49
2023-06-06T11:44:36.644Z,0.50
2023-06-06T11:45:36.709Z,0.49
2023-06-06T11:46:36.821Z,0.50
2023-06-06T11:47:36.836Z,0.58
2023-06-06T11:48:36.885Z,0.48
2023-06-06T11:49:36.905Z,0.53
2023-06-06T11:50:36.973Z,0.58
2023-06-06T11:51:36.992Z,0.53
2023-06-06T11:52:37.054Z,0.61
2023-06-06T11:53:37.115Z,0.56
2023-06-06T11:54:37.127Z,0.56
2023-06-06T11:55:37.185Z,0.49
2023-06-06T11:56:37.415Z,0.50
2023-06-06T11:57:37.292Z,0.53
2023-06-06T11:58:37.340Z,0.51
2023-06-06T11:59:37.388Z,0.49
2023-06-06T12:00:37.450Z,0.52
2023-06-06T12:01:37.494Z,0.62
2023-06-06T12:02:37.641Z,0.55
2023-06-06T12:03:37.705Z,0.58
2023-06-06T12:04:37.663Z,0.54
2023-06-06T12:05:37.802Z,0.53
2023-06-06T12:06:37.733Z,0.54
2023-06-06T12:07:37.757Z,0.72
2023-06-06T12:08:37.800Z,0.79
2023-06-06T12:09:37.954Z,1.27
2023-06-06T12:10:37.903Z,1.87
2023-06-06T12:11:37.939Z,2.19
2023-06-06T12:12:37.998Z,2.63
2023-06-06T12:13:38.027Z,2.22
2023-06-06T12:14:38.081Z,1.88
2023-06-06T12:15:38.355Z,1.21
2023-06-06T12:16:38.198Z,1.13
2023-06-06T12:17:38.242Z,1.24
2023-06-06T12:18:38.270Z,1.55
2023-06-06T12:19:38.307Z,2.01
2023-06-06T12:20:38.374Z,2.04
2023-06-06T12:21:38.435Z,2.52
2023-06-06T12:22:38.497Z,2.80
2023-06-06T12:23:38.560Z,2.32
2023-06-06T12:24:38.608Z,2.35
2023-06-06T12:25:38.711Z,2.91
2023-06-06T12:26:38.743Z,3.01
2023-06-06T12:27:38.790Z,2.93
2023-06-06T12:28:38.854Z,2.65
2023-06-06T12:29:38.890Z,3.15
2023-06-06T12:30:38.944Z,3.67
2023-06-06T12:31:39.028Z,4.10
2023-06-06T12:32:39.089Z,4.59
2023-06-06T12:33:39.132Z,4.94
2023-06-06T12:34:39.179Z,4.64
2023-06-06T12:35:39.247Z,4.71
2023-06-06T12:36:39.305Z,4.28
2023-06-06T12:37:39.358Z,3.99
2023-06-06T12:38:39.411Z,4.26
2023-06-06T12:39:39.453Z,4.11
2023-06-06T12:40:39.529Z,4.74
2023-06-06T12:41:39.583Z,4.21
2023-06-06T12:42:39.618Z,4.14
2023-06-06T12:43:39.656Z,4.54
2023-06-06T12:44:39.717Z,4.96
2023-06-06T12:45:39.785Z,4.30
2023-06-06T12:46:39.871Z,4.52
2023-06-06T12:47:39.909Z,4.29
2023-06-06T12:48:39.910Z,5.20
2023-06-06T12:49:39.980Z,4.79
2023-06-06T12:50:40.012Z,4.52
2023-06-06T12:51:40.036Z,5.00
2023-06-06T12:52:40.103Z,5.83
2023-06-06T12:53:40.182Z,6.58
2023-06-06T12:54:40.182Z,6.87
2023-06-06T12:55:40.230Z,5.52
2023-06-06T12:56:40.296Z,5.14
2023-06-06T12:57:40.424Z,4.25
2023-06-06T12:58:40.365Z,5.37
2023-06-06T12:59:40.430Z,5.75
2023-06-06T13:00:40.450Z,6.00
2023-06-06T13:01:40.579Z,6.19
2023-06-06T13:02:40.579Z,6.17
2023-06-06T13:03:40.626Z,4.55
2023-06-06T13:04:40.696Z,4.23
2023-06-06T13:05:40.655Z,4.64
2023-06-06T13:06:40.715Z,3.99
2023-06-06T13:07:40.750Z,4.13
2023-06-06T13:08:40.813Z,4.21
2023-06-06T13:09:40.884Z,3.34
2023-06-06T13:10:40.897Z,2.87
2023-06-06T13:11:40.928Z,1.99
2023-06-06T13:12:40.976Z,2.23
2023-06-06T13:13:41.082Z,2.31
2023-06-06T13:14:41.065Z,2.71
2023-06-06T13:15:41.168Z,2.94
2023-06-06T13:16:41.260Z,2.45